createdAt,value
2017-05-18T00:02:20.020Z,36.70
2017-05-18T00:04:47.237Z,36.60
2017-05-18T00:07:14.440Z,37.10
2017-05-18T00:09:41.660Z,36.70
2017-05-18T00:12:09.256Z,37.70
2017-05-18T00:14:36.461Z,38.10
2017-05-18T00:17:04.393Z,37.80
2017-05-18T00:19:31.709Z,38.10
2017-05-18T00:21:59.697Z,38.40
2017-05-18T00:24:26.899Z,39.10
2017-05-18T00:26:54.092Z,38.30
2017-05-18T00:29:21.289Z,38.30
2017-05-18T00:31:48.503Z,38.90
2017-05-18T00:34:15.733Z,38.50
2017-05-18T00:36:42.925Z,38.80
2017-05-18T00:39:10.122Z,39.00
2017-05-18T00:41:37.340Z,38.60
2017-05-18T00:44:04.577Z,38.60
2017-05-18T00:46:31.815Z,38.90
2017-05-18T00:48:59.905Z,40.00
2017-05-18T00:51:27.108Z,39.90
2017-05-18T00:53:54.339Z,39.70
2017-05-18T00:56:21.554Z,39.70
2017-05-18T00:58:48.781Z,39.90
2017-05-18T01:01:16.097Z,39.60
2017-05-18T01:03:43.348Z,39.30
2017-05-18T01:06:10.533Z,38.80
2017-05-18T01:08:38.613Z,39.50
2017-05-18T01:11:05.956Z,39.00
2017-05-18T01:13:33.153Z,39.60
2017-05-18T01:16:01.097Z,39.40
2017-05-18T01:18:28.299Z,38.60
2017-05-18T01:20:55.508Z,38.70
2017-05-18T01:23:22.721Z,38.40
2017-05-18T01:25:49.920Z,39.00
2017-05-18T01:28:17.153Z,39.10
2017-05-18T01:30:44.381Z,38.20
2017-05-18T01:33:12.349Z,38.20
2017-05-18T01:35:40.404Z,38.20
2017-05-18T01:38:07.639Z,37.90
2017-05-18T01:40:34.916Z,37.90
2017-05-18T01:43:02.902Z,38.00
2017-05-18T01:45:30.153Z,37.70
2017-05-18T01:47:57.373Z,37.60
2017-05-18T01:50:24.617Z,37.40
2017-05-18T01:52:51.841Z,37.40
2017-05-18T01:55:19.417Z,37.50
2017-05-18T01:57:46.593Z,37.80
2017-05-18T02:00:13.822Z,37.40
2017-05-18T02:02:41.404Z,37.20
2017-05-18T02:05:08.637Z,37.10
2017-05-18T02:07:35.848Z,37.30
2017-05-18T02:10:04.364Z,37.30
2017-05-18T02:12:31.561Z,36.90
2017-05-18T02:14:58.744Z,36.80
2017-05-18T02:17:25.965Z,37.00
2017-05-18T02:19:53.905Z,37.10
2017-05-18T02:22:21.100Z,37.30
2017-05-18T02:24:48.296Z,37.30
2017-05-18T02:27:15.493Z,36.90
2017-05-18T02:29:42.709Z,36.80
2017-05-18T02:32:10.681Z,37.20
2017-05-18T02:34:37.883Z,37.20
2017-05-18T02:37:05.085Z,36.80
2017-05-18T02:39:32.330Z,37.40
2017-05-18T02:41:59.537Z,37.40
2017-05-18T02:44:26.731Z,37.40
2017-05-18T02:46:54.706Z,38.00
2017-05-18T02:49:21.945Z,37.70
2017-05-18T02:51:49.878Z,37.80
2017-05-18T02:54:17.084Z,37.50
2017-05-18T02:56:44.285Z,38.10
2017-05-18T02:59:11.518Z,37.70
2017-05-18T03:01:38.727Z,37.90
2017-05-18T03:04:06.024Z,37.90
2017-05-18T03:06:33.232Z,38.40
2017-05-18T03:09:00.443Z,38.10
2017-05-18T03:11:28.392Z,37.60
2017-05-18T03:13:55.611Z,38.10
2017-05-18T03:16:22.828Z,37.80
2017-05-18T03:18:50.036Z,38.10
2017-05-18T03:21:17.269Z,38.20
2017-05-18T03:23:44.465Z,38.00
2017-05-18T03:26:11.677Z,38.20
2017-05-18T03:28:38.869Z,39.50
2017-05-18T03:31:06.304Z,38.50
2017-05-18T03:33:33.516Z,38.30
2017-05-18T03:36:00.720Z,39.20
2017-05-18T03:38:27.945Z,38.60
2017-05-18T03:40:55.175Z,39.20
2017-05-18T03:43:22.425Z,38.60
2017-05-18T03:45:49.628Z,38.60
2017-05-18T03:48:17.564Z,39.10
2017-05-18T03:50:44.876Z,39.50
2017-05-18T03:53:12.844Z,40.20
2017-05-18T03:55:40.784Z,39.30
2017-05-18T03:58:08.021Z,39.20
2017-05-18T04:00:35.962Z,39.40
2017-05-18T04:03:03.346Z,39.20
2017-05-18T04:05:30.553Z,39.60
2017-05-18T04:07:57.782Z,40.60
2017-05-18T04:10:24.989Z,40.60
2017-05-18T04:12:52.221Z,40.10
2017-05-18T04:15:20.145Z,40.10
2017-05-18T04:17:47.344Z,40.50
2017-05-18T04:20:14.548Z,41.40
2017-05-18T04:22:41.780Z,40.30
2017-05-18T04:25:09.066Z,41.40
2017-05-18T04:27:37.013Z,41.70
2017-05-18T04:30:04.213Z,40.30
2017-05-18T04:32:31.443Z,40.80
2017-05-18T04:34:58.616Z,40.20
2017-05-18T04:37:25.828Z,40.60
2017-05-18T04:39:53.017Z,40.50
2017-05-18T04:42:20.272Z,41.30
2017-05-18T04:44:47.509Z,41.30
2017-05-18T04:47:15.181Z,41.30
2017-05-18T04:49:42.386Z,41.40
2017-05-18T04:52:09.655Z,41.30
2017-05-18T04:54:36.850Z,41.30
2017-05-18T04:57:04.070Z,42.10
2017-05-18T04:59:32.018Z,42.00
2017-05-18T05:01:59.285Z,41.50
2017-05-18T05:04:27.365Z,41.40
2017-05-18T05:06:55.562Z,42.00
2017-05-18T05:09:25.153Z,41.90
2017-05-18T05:11:56.550Z,41.80
2017-05-18T05:14:24.780Z,42.40
2017-05-18T05:16:51.985Z,42.00
2017-05-18T05:19:19.551Z,41.80
2017-05-18T05:21:46.789Z,42.20
2017-05-18T05:24:14.021Z,42.50
2017-05-18T05:26:41.369Z,42.70
2017-05-18T05:29:08.892Z,42.00
2017-05-18T05:31:36.332Z,42.50
2017-05-18T05:34:03.547Z,42.50
2017-05-18T05:36:30.752Z,43.20
2017-05-18T05:38:57.993Z,42.90
2017-05-18T05:41:25.535Z,43.40
2017-05-18T05:43:52.748Z,43.60
2017-05-18T05:46:19.994Z,44.00
2017-05-18T05:48:47.264Z,43.70
2017-05-18T05:51:14.499Z,43.90
2017-05-18T05:53:41.797Z,45.30
2017-05-18T05:56:09.048Z,44.70
2017-05-18T05:58:36.257Z,44.70
2017-05-18T06:01:03.609Z,45.00
2017-05-18T06:03:30.821Z,44.70
2017-05-18T06:05:58.123Z,44.70
2017-05-18T06:08:25.308Z,45.10
2017-05-18T06:10:52.920Z,45.40
2017-05-18T06:13:20.182Z,46.50
2017-05-18T06:15:48.707Z,45.10
2017-05-18T06:18:15.913Z,45.50
2017-05-18T06:20:43.100Z,45.40
2017-05-18T06:23:10.554Z,45.50
2017-05-18T06:25:38.149Z,45.60
2017-05-18T06:28:05.440Z,45.00
2017-05-18T06:30:32.721Z,45.80
2017-05-18T06:32:59.924Z,45.30
2017-05-18T06:35:27.506Z,45.20
2017-05-18T06:37:54.846Z,45.20
2017-05-18T06:40:22.112Z,45.30
2017-05-18T06:42:49.325Z,44.70
2017-05-18T06:45:16.685Z,44.80
2017-05-18T06:47:43.887Z,45.50
2017-05-18T06:50:11.182Z,45.20
2017-05-18T06:52:38.507Z,45.80
2017-05-18T06:55:06.675Z,46.70
2017-05-18T06:57:33.877Z,48.20
2017-05-18T07:00:01.061Z,48.20
2017-05-18T07:02:28.285Z,48.30
2017-05-18T07:04:55.671Z,48.60
2017-05-18T07:07:22.852Z,48.70
2017-05-18T07:09:50.044Z,48.60
2017-05-18T07:12:17.269Z,48.70
2017-05-18T07:14:44.493Z,49.00
2017-05-18T07:17:11.705Z,48.70
2017-05-18T07:19:38.918Z,48.40
2017-05-18T07:22:06.161Z,48.10
2017-05-18T07:24:33.407Z,48.80
2017-05-18T07:27:00.613Z,48.60
2017-05-18T07:29:27.853Z,49.00
2017-05-18T07:31:55.056Z,48.90
2017-05-18T07:34:22.245Z,48.60
2017-05-18T07:36:50.188Z,49.00
2017-05-18T07:39:17.387Z,48.50
2017-05-18T07:41:44.595Z,48.60
2017-05-18T07:44:11.809Z,48.80
2017-05-18T07:46:39.018Z,49.30
2017-05-18T07:49:06.269Z,49.10
2017-05-18T07:51:33.485Z,49.60
2017-05-18T07:54:00.682Z,49.50
2017-05-18T07:56:28.675Z,50.20
2017-05-18T07:58:56.697Z,49.40
2017-05-18T08:01:23.928Z,49.20
2017-05-18T08:03:51.210Z,49.40
2017-05-18T08:06:18.408Z,49.40
2017-05-18T08:08:45.630Z,49.30
2017-05-18T08:11:12.860Z,49.10
2017-05-18T08:13:40.053Z,49.40
2017-05-18T08:16:08.058Z,50.60
2017-05-18T08:18:35.269Z,51.10
2017-05-18T08:21:02.480Z,52.00
2017-05-18T08:23:29.706Z,52.00
2017-05-18T08:25:56.968Z,50.30
2017-05-18T08:28:24.920Z,51.00
2017-05-18T08:30:52.228Z,50.20
2017-05-18T08:33:21.014Z,50.60
2017-05-18T08:35:48.366Z,50.50
2017-05-18T08:38:15.608Z,50.50
2017-05-18T08:40:42.825Z,50.70
2017-05-18T08:43:13.711Z,50.50
2017-05-18T08:45:40.924Z,50.20
2017-05-18T08:48:08.126Z,50.50
2017-05-18T08:50:35.325Z,49.90
2017-05-18T08:53:02.529Z,48.90
2017-05-18T08:58:02.000Z,49.30
2017-05-18T09:00:29.239Z,48.90
2017-05-18T09:02:56.449Z,49.30
2017-05-18T09:05:24.420Z,49.20
2017-05-18T09:10:24.608Z,48.10
2017-05-18T09:12:51.822Z,48.40
2017-05-18T09:15:19.025Z,49.00
2017-05-18T09:17:46.221Z,48.90
2017-05-18T09:20:13.432Z,49.30
2017-05-18T09:22:40.664Z,48.20
2017-05-18T09:25:13.887Z,47.80
2017-05-18T09:27:41.226Z,48.00
2017-05-18T09:30:08.450Z,48.20
2017-05-18T09:32:35.644Z,48.30
2017-05-18T09:35:02.853Z,48.00
2017-05-18T09:37:30.039Z,48.30
2017-05-18T09:40:04.125Z,49.10
2017-05-18T09:42:31.399Z,48.50
2017-05-18T09:44:58.618Z,48.10
2017-05-18T09:47:25.825Z,47.60
2017-05-18T09:49:53.000Z,46.50
2017-05-18T09:52:20.931Z,47.40
2017-05-18T09:54:51.769Z,46.70
2017-05-18T09:57:18.987Z,44.60
2017-05-18T09:59:46.169Z,45.20
2017-05-18T10:02:13.373Z,43.80
2017-05-18T10:04:41.296Z,44.00
2017-05-18T10:07:08.503Z,45.00
2017-05-18T10:09:42.241Z,45.00
2017-05-18T10:12:09.492Z,45.20
2017-05-18T10:14:36.745Z,46.30
2017-05-18T10:17:03.946Z,46.80
2017-05-18T10:19:31.122Z,47.80
2017-05-18T10:21:58.369Z,48.10
2017-05-18T10:24:28.799Z,49.10
2017-05-18T10:26:55.981Z,49.90
2017-05-18T10:29:23.174Z,50.20
2017-05-18T10:31:50.379Z,50.60
2017-05-18T10:34:17.605Z,50.70
2017-05-18T10:36:44.845Z,50.90
2017-05-18T10:39:12.055Z,51.00
2017-05-18T10:41:42.892Z,49.80
2017-05-18T10:44:10.109Z,49.70
2017-05-18T10:46:37.296Z,49.20
2017-05-18T10:49:04.506Z,49.70
2017-05-18T10:51:31.704Z,49.50
2017-05-18T10:53:58.920Z,49.10
2017-05-18T10:56:26.877Z,48.20
2017-05-18T10:58:54.114Z,48.30
2017-05-18T11:01:21.340Z,48.50
2017-05-18T11:03:48.553Z,48.90
2017-05-18T11:06:15.792Z,48.80
2017-05-18T11:08:43.021Z,48.70
2017-05-18T11:11:13.941Z,48.60
2017-05-18T11:13:41.177Z,47.40
2017-05-18T11:16:08.376Z,47.90
2017-05-18T11:18:35.610Z,48.50
2017-05-18T11:21:02.827Z,48.60
2017-05-18T11:23:30.041Z,48.70
2017-05-18T11:25:57.249Z,49.40
2017-05-18T11:28:25.222Z,49.50
2017-05-18T11:30:53.164Z,49.50
2017-05-18T11:33:20.381Z,50.10
2017-05-18T11:35:47.573Z,50.40
2017-05-18T11:38:14.774Z,50.30
2017-05-18T11:40:41.979Z,50.30
2017-05-18T11:43:09.245Z,51.30
2017-05-18T11:45:37.209Z,53.30
2017-05-18T11:48:04.426Z,54.00
2017-05-18T11:50:31.644Z,55.30
2017-05-18T11:52:58.893Z,56.80
2017-05-18T11:55:26.106Z,58.80
2017-05-18T11:57:53.349Z,60.40
2017-05-18T12:00:20.623Z,61.10
2017-05-18T12:02:48.578Z,62.50
2017-05-18T12:05:15.764Z,63.50
2017-05-18T12:07:42.965Z,62.90
2017-05-18T12:10:10.166Z,63.50
2017-05-18T12:12:37.405Z,64.80
2017-05-18T12:15:04.589Z,64.10
2017-05-18T12:17:31.813Z,66.00
2017-05-18T12:19:59.085Z,64.50
2017-05-18T12:22:26.316Z,64.40
2017-05-18T12:24:53.589Z,64.00
2017-05-18T12:27:20.884Z,64.00
2017-05-18T12:29:49.466Z,64.50
2017-05-18T12:32:16.729Z,64.20
2017-05-18T12:34:44.000Z,64.10
2017-05-18T12:37:11.234Z,63.90
2017-05-18T12:39:38.481Z,64.20
2017-05-18T12:42:05.725Z,63.80
2017-05-18T12:44:33.773Z,63.40
2017-05-18T12:47:01.752Z,64.40
2017-05-18T12:49:28.964Z,63.10
2017-05-18T12:51:56.156Z,64.10
2017-05-18T12:54:24.123Z,64.30
2017-05-18T12:56:51.337Z,64.00
2017-05-18T12:59:20.846Z,62.80
2017-05-18T13:01:48.103Z,63.20
2017-05-18T13:04:15.381Z,62.80
2017-05-18T13:06:42.593Z,62.00
2017-05-18T13:09:09.792Z,61.50
2017-05-18T13:11:36.993Z,60.80
2017-05-18T13:14:04.232Z,61.00
2017-05-18T13:16:31.447Z,61.80
2017-05-18T13:18:58.625Z,61.90
2017-05-18T13:21:25.826Z,61.30
2017-05-18T13:23:53.061Z,62.60
2017-05-18T13:26:20.704Z,61.60
2017-05-18T13:28:47.914Z,61.30
2017-05-18T13:31:15.121Z,61.60
2017-05-18T13:33:42.321Z,62.00
2017-05-18T13:36:09.517Z,62.50
2017-05-18T13:38:37.303Z,62.50
2017-05-18T13:41:04.772Z,62.40
2017-05-18T13:43:32.049Z,62.40
2017-05-18T13:45:59.274Z,61.80
2017-05-18T13:48:26.496Z,62.50
2017-05-18T13:50:53.755Z,62.50
2017-05-18T13:53:20.956Z,63.80
2017-05-18T13:55:48.900Z,62.60
2017-05-18T13:58:16.218Z,61.20
2017-05-18T14:00:43.441Z,60.80
2017-05-18T14:03:10.661Z,62.00
2017-05-18T14:05:38.616Z,60.00
2017-05-18T14:08:06.573Z,61.80
2017-05-18T14:10:33.804Z,62.10
2017-05-18T14:13:01.028Z,61.90
2017-05-18T14:15:28.213Z,61.70
2017-05-18T14:17:56.200Z,60.70
2017-05-18T14:20:23.395Z,61.60
2017-05-18T14:22:50.609Z,60.80
2017-05-18T14:25:17.824Z,61.00
2017-05-18T14:27:45.012Z,61.30
2017-05-18T14:30:12.976Z,61.30
2017-05-18T14:32:40.198Z,61.70
2017-05-18T14:35:07.657Z,61.60
2017-05-18T14:40:08.420Z,60.80
2017-05-18T14:42:35.989Z,60.70
2017-05-18T14:45:03.232Z,59.20
2017-05-18T14:47:30.432Z,60.00
2017-05-18T14:49:57.662Z,60.50
2017-05-18T14:52:25.019Z,58.60
2017-05-18T14:54:52.467Z,59.40
2017-05-18T14:57:19.917Z,58.60
2017-05-18T14:59:47.496Z,58.00
2017-05-18T15:02:14.932Z,59.20
2017-05-18T15:04:42.574Z,57.50
2017-05-18T15:07:10.572Z,56.90
2017-05-18T15:09:37.880Z,58.50
2017-05-18T15:12:05.241Z,56.80
2017-05-18T15:14:33.169Z,57.00
2017-05-18T15:17:00.415Z,57.70
2017-05-18T15:19:27.711Z,57.70
2017-05-18T15:21:55.044Z,57.80
2017-05-18T15:24:23.019Z,56.50
2017-05-18T15:26:52.006Z,57.40
2017-05-18T15:29:19.200Z,57.00
2017-05-18T15:31:46.428Z,55.90
2017-05-18T15:34:13.629Z,57.50
2017-05-18T15:36:41.345Z,57.20
2017-05-18T15:39:12.732Z,57.30
2017-05-18T15:41:40.077Z,55.70
2017-05-18T15:44:07.443Z,57.50
2017-05-18T15:46:35.403Z,55.80
2017-05-18T15:49:02.638Z,58.20
2017-05-18T15:51:30.596Z,58.30
2017-05-18T15:53:58.868Z,57.10
2017-05-18T15:56:26.355Z,57.70
2017-05-18T15:58:53.816Z,58.50
2017-05-18T16:01:21.278Z,57.60
2017-05-18T16:03:48.724Z,57.10
2017-05-18T16:06:16.164Z,58.10
2017-05-18T16:08:43.612Z,58.80
2017-05-18T16:11:13.148Z,58.80
2017-05-18T16:13:40.601Z,57.30
2017-05-18T16:16:08.720Z,57.70
2017-05-18T16:18:36.590Z,56.90
2017-05-18T16:21:05.039Z,57.50
2017-05-18T16:23:33.597Z,59.50
2017-05-18T16:26:05.956Z,59.20
2017-05-18T16:28:34.227Z,58.40
2017-05-18T16:31:01.467Z,58.40
2017-05-18T16:33:28.697Z,59.80
2017-05-18T16:35:55.937Z,59.90
2017-05-18T16:38:28.386Z,59.40
2017-05-18T16:40:55.635Z,58.70
2017-05-18T16:43:23.044Z,58.30
2017-05-18T16:45:50.256Z,59.00
2017-05-18T16:48:18.202Z,57.70
2017-05-18T16:50:45.455Z,58.80
2017-05-18T16:53:12.732Z,59.30
2017-05-18T16:55:39.929Z,58.40
2017-05-18T16:58:07.353Z,59.20
2017-05-18T17:00:34.537Z,59.30
2017-05-18T17:03:01.748Z,59.40
2017-05-18T17:05:29.025Z,59.70
2017-05-18T17:07:56.252Z,58.50
2017-05-18T17:10:23.485Z,59.30
2017-05-18T17:12:51.443Z,60.00
2017-05-18T17:15:19.521Z,60.60
2017-05-18T17:17:46.729Z,60.30
2017-05-18T17:20:14.000Z,60.60
2017-05-18T17:22:41.225Z,58.40
2017-05-18T17:25:08.442Z,58.80
2017-05-18T17:27:35.748Z,59.90
2017-05-18T17:30:03.004Z,59.20
2017-05-18T17:32:30.212Z,59.30
2017-05-18T17:34:57.525Z,59.60
2017-05-18T17:37:24.764Z,59.30
2017-05-18T17:39:52.040Z,58.70
2017-05-18T17:42:19.318Z,58.50
2017-05-18T17:44:46.537Z,58.30
2017-05-18T17:47:13.728Z,58.90
2017-05-18T17:49:41.041Z,59.40
2017-05-18T17:52:09.316Z,60.40
2017-05-18T17:54:37.705Z,59.20
2017-05-18T17:57:04.954Z,59.00
2017-05-18T17:59:32.169Z,58.60
2017-05-18T18:01:59.457Z,60.30
2017-05-18T18:04:27.633Z,59.70
2017-05-18T18:06:55.633Z,59.60
2017-05-18T18:09:23.673Z,60.00
2017-05-18T18:11:50.997Z,62.30
2017-05-18T18:14:19.002Z,62.30
2017-05-18T18:16:46.212Z,60.60
2017-05-18T18:19:14.152Z,60.60
2017-05-18T18:21:42.106Z,60.90
2017-05-18T18:24:10.073Z,60.00
2017-05-18T18:26:43.886Z,60.80
2017-05-18T18:29:14.249Z,61.50
2017-05-18T18:31:41.462Z,61.00
2017-05-18T18:34:08.676Z,60.40
2017-05-18T18:36:36.002Z,60.20
2017-05-18T18:39:07.685Z,61.80
2017-05-18T18:41:34.956Z,61.20
2017-05-18T18:44:02.152Z,60.20
2017-05-18T18:46:29.370Z,60.00
2017-05-18T18:48:56.573Z,60.50
2017-05-18T18:51:23.832Z,60.90
2017-05-18T18:53:51.037Z,61.00
2017-05-18T18:56:18.265Z,60.20
2017-05-18T18:58:45.464Z,62.40
2017-05-18T19:01:13.460Z,60.70
2017-05-18T19:03:40.699Z,62.10
2017-05-18T19:06:08.029Z,60.90
2017-05-18T19:08:35.268Z,60.20
2017-05-18T19:11:02.645Z,62.50
2017-05-18T19:13:29.889Z,59.40
2017-05-18T19:15:58.196Z,61.30
2017-05-18T19:18:25.437Z,60.30
2017-05-18T19:20:53.457Z,61.10
2017-05-18T19:23:20.664Z,62.30
2017-05-18T19:25:47.908Z,62.40
2017-05-18T19:28:15.848Z,61.50
2017-05-18T19:30:49.882Z,62.40
2017-05-18T19:33:17.093Z,62.20
2017-05-18T19:35:44.290Z,61.10
2017-05-18T19:38:11.524Z,61.50
2017-05-18T19:40:38.985Z,62.20
2017-05-18T19:43:06.272Z,61.70
2017-05-18T19:45:33.504Z,62.20
2017-05-18T19:48:00.719Z,62.20
2017-05-18T19:50:27.954Z,62.20
2017-05-18T19:52:55.183Z,61.10
2017-05-18T19:55:22.380Z,61.30
2017-05-18T19:57:49.622Z,60.50
2017-05-18T20:00:16.892Z,61.60
2017-05-18T20:02:44.146Z,60.90
2017-05-18T20:05:11.366Z,61.80
2017-05-18T20:07:38.641Z,61.30
2017-05-18T20:10:05.869Z,60.90
2017-05-18T20:12:33.151Z,61.00
2017-05-18T20:15:00.372Z,61.20
2017-05-18T20:17:27.641Z,61.20
2017-05-18T20:19:54.895Z,60.70
2017-05-18T20:22:22.151Z,60.80
2017-05-18T20:24:49.418Z,60.50
2017-05-18T20:27:16.672Z,60.90
2017-05-18T20:29:44.020Z,60.60
2017-05-18T20:32:11.208Z,61.10
2017-05-18T20:34:38.513Z,60.00
2017-05-18T20:37:05.714Z,61.10
2017-05-18T20:39:32.953Z,60.50
2017-05-18T20:42:00.117Z,60.30
2017-05-18T20:44:28.058Z,60.50
2017-05-18T20:46:55.278Z,60.80
2017-05-18T20:49:22.477Z,60.70
2017-05-18T20:51:49.672Z,60.50
2017-05-18T20:54:17.532Z,60.90
2017-05-18T20:56:45.546Z,61.30
2017-05-18T20:59:12.785Z,61.60
2017-05-18T21:01:39.980Z,61.90
2017-05-18T21:06:47.823Z,61.20
2017-05-18T21:09:15.005Z,61.00
2017-05-18T21:11:42.189Z,60.70
2017-05-18T21:14:10.148Z,60.50
2017-05-18T21:16:38.171Z,60.60
2017-05-18T21:19:05.425Z,60.20
2017-05-18T21:21:32.649Z,60.70
2017-05-18T21:23:59.880Z,61.20
2017-05-18T21:26:27.195Z,61.30
2017-05-18T21:28:54.404Z,63.20
2017-05-18T21:31:21.641Z,62.80
2017-05-18T21:33:48.884Z,63.30
2017-05-18T21:36:16.164Z,64.00
2017-05-18T21:38:43.395Z,64.00
2017-05-18T21:41:10.685Z,64.10
2017-05-18T21:43:37.957Z,64.50
2017-05-18T21:46:05.153Z,63.80
2017-05-18T21:48:32.350Z,63.30
2017-05-18T21:50:59.556Z,62.70
2017-05-18T21:53:26.761Z,62.60
2017-05-18T21:55:53.957Z,62.00
2017-05-18T21:58:21.189Z,62.50
2017-05-18T22:00:49.144Z,62.70
2017-05-18T22:03:16.328Z,62.50
2017-05-18T22:05:43.647Z,62.10
2017-05-18T22:08:10.928Z,61.30
2017-05-18T22:10:38.147Z,61.30
2017-05-18T22:13:05.376Z,61.20
2017-05-18T22:15:32.593Z,61.10
2017-05-18T22:17:59.973Z,61.20
2017-05-18T22:20:27.209Z,61.20
2017-05-18T22:22:58.405Z,61.10
2017-05-18T22:25:25.633Z,60.60
2017-05-18T22:27:52.842Z,60.90
2017-05-18T22:30:20.149Z,61.80
2017-05-18T22:32:47.349Z,61.20
2017-05-18T22:35:14.572Z,61.90
2017-05-18T22:37:41.933Z,61.30
2017-05-18T22:40:11.280Z,61.60
2017-05-18T22:42:39.231Z,61.60
2017-05-18T22:45:06.500Z,61.00
2017-05-18T22:47:33.761Z,60.90
2017-05-18T22:50:01.009Z,60.80
2017-05-18T22:52:28.217Z,61.50
2017-05-18T22:54:55.408Z,61.10
2017-05-18T22:57:22.659Z,60.90
2017-05-18T22:59:49.883Z,60.80
2017-05-18T23:02:17.132Z,61.30
2017-05-18T23:04:45.078Z,61.70
2017-05-18T23:07:12.276Z,61.20
2017-05-18T23:09:39.461Z,61.20
2017-05-18T23:12:06.652Z,61.50
2017-05-18T23:14:34.777Z,61.00
2017-05-18T23:17:02.001Z,61.50
2017-05-18T23:19:29.223Z,61.60
2017-05-18T23:21:57.215Z,61.50
2017-05-18T23:24:24.417Z,61.50
2017-05-18T23:26:51.605Z,61.40
2017-05-18T23:29:18.814Z,61.20
2017-05-18T23:31:46.008Z,61.30
2017-05-18T23:34:13.215Z,61.80
2017-05-18T23:36:40.420Z,62.10
2017-05-18T23:39:07.687Z,61.60
2017-05-18T23:41:34.948Z,62.20
2017-05-18T23:44:02.188Z,62.30
2017-05-18T23:46:29.384Z,62.00
2017-05-18T23:48:56.578Z,62.10
2017-05-18T23:51:23.803Z,62.10
2017-05-18T23:53:51.789Z,61.80
2017-05-18T23:56:19.016Z,62.10
2017-05-18T23:58:46.218Z,61.40
